sensor_id;sensor_type;location;lat;lon;timestamp;P1;durP1;ratioP1;P2;durP2;ratioP2
4831;SDS011;2430;51.322;7.864;2023-03-01T00:02:14;7.20;;;4.07;;
4831;SDS011;2430;51.322;7.864;2023-03-01T00:04:41;4.90;;;3.93;;
4831;SDS011;2430;51.322;7.864;2023-03-01T00:07:09;5.50;;;3.67;;
4831;SDS011;2430;51.322;7.864;2023-03-01T00:09:35;4.27;;;3.57;;
4831;SDS011;2430;51.322;7.864;2023-03-01T00:12:02;6.47;;;3.47;;
4831;SDS011;2430;51.322;7.864;2023-03-01T00:14:28;4.40;;;2.93;;
4831;SDS011;2430;51.322;7.864;2023-03-01T00:16:55;5.10;;;3.13;;
4831;SDS011;2430;51.322;7.864;2023-03-01T00:19:21;3.40;;;2.80;;
4831;SDS011;2430;51.322;7.864;2023-03-01T00:21:48;5.27;;;3.20;;
4831;SDS011;2430;51.322;7.864;2023-03-01T00:24:15;5.30;;;3.13;;
4831;SDS011;2430;51.322;7.864;2023-03-01T00:26:42;6.90;;;3.47;;
4831;SDS011;2430;51.322;7.864;2023-03-01T00:29:08;3.10;;;2.80;;
4831;SDS011;2430;51.322;7.864;2023-03-01T00:31:35;5.20;;;2.97;;
4831;SDS011;2430;51.322;7.864;2023-03-01T00:34:03;4.97;;;3.13;;
4831;SDS011;2430;51.322;7.864;2023-03-01T00:36:30;3.77;;;3.43;;
4831;SDS011;2430;51.322;7.864;2023-03-01T00:38:57;2.70;;;2.50;;
4831;SDS011;2430;51.322;7.864;2023-03-01T00:41:24;4.20;;;2.90;;
4831;SDS011;2430;51.322;7.864;2023-03-01T00:43:52;3.13;;;2.83;;
4831;SDS011;2430;51.322;7.864;2023-03-01T00:46:19;3.90;;;2.83;;
4831;SDS011;2430;51.322;7.864;2023-03-01T00:48:46;4.50;;;3.13;;
4831;SDS011;2430;51.322;7.864;2023-03-01T00:51:13;5.03;;;2.70;;
4831;SDS011;2430;51.322;7.864;2023-03-01T00:53:40;4.07;;;3.30;;
4831;SDS011;2430;51.322;7.864;2023-03-01T00:56:07;3.83;;;2.50;;
4831;SDS011;2430;51.322;7.864;2023-03-01T00:58:35;4.43;;;2.60;;
4831;SDS011;2430;51.322;7.864;2023-03-01T01:01:06;3.80;;;3.00;;
4831;SDS011;2430;51.322;7.864;2023-03-01T01:03:42;4.83;;;3.00;;
4831;SDS011;2430;51.322;7.864;2023-03-01T01:06:12;3.67;;;3.20;;
4831;SDS011;2430;51.322;7.864;2023-03-01T01:08:39;4.77;;;2.83;;
4831;SDS011;2430;51.322;7.864;2023-03-01T01:11:05;3.60;;;3.20;;
4831;SDS011;2430;51.322;7.864;2023-03-01T01:13:36;2.60;;;2.40;;
4831;SDS011;2430;51.322;7.864;2023-03-01T01:16:02;3.30;;;2.63;;
4831;SDS011;2430;51.322;7.864;2023-03-01T01:18:29;3.30;;;3.00;;
4831;SDS011;2430;51.322;7.864;2023-03-01T01:20:55;4.43;;;2.90;;
4831;SDS011;2430;51.322;7.864;2023-03-01T01:23:22;4.90;;;2.93;;
4831;SDS011;2430;51.322;7.864;2023-03-01T01:25:48;3.60;;;3.00;;
4831;SDS011;2430;51.322;7.864;2023-03-01T01:28:14;8.47;;;3.97;;
4831;SDS011;2430;51.322;7.864;2023-03-01T01:30:43;8.30;;;4.40;;
4831;SDS011;2430;51.322;7.864;2023-03-01T01:33:09;3.70;;;3.30;;
4831;SDS011;2430;51.322;7.864;2023-03-01T01:35:36;5.27;;;3.77;;
4831;SDS011;2430;51.322;7.864;2023-03-01T01:38:02;31.53;;;3.83;;
4831;SDS011;2430;51.322;7.864;2023-03-01T01:40:29;5.60;;;4.30;;
4831;SDS011;2430;51.322;7.864;2023-03-01T01:42:55;4.50;;;3.60;;
4831;SDS011;2430;51.322;7.864;2023-03-01T01:45:26;3.60;;;2.63;;
4831;SDS011;2430;51.322;7.864;2023-03-01T01:47:55;3.90;;;3.03;;
4831;SDS011;2430;51.322;7.864;2023-03-01T01:50:22;4.00;;;3.60;;
4831;SDS011;2430;51.322;7.864;2023-03-01T01:52:50;4.00;;;3.10;;
4831;SDS011;2430;51.322;7.864;2023-03-01T01:55:17;4.93;;;3.83;;
4831;SDS011;2430;51.322;7.864;2023-03-01T01:57:47;5.77;;;2.97;;
4831;SDS011;2430;51.322;7.864;2023-03-01T02:00:20;3.80;;;3.20;;
4831;SDS011;2430;51.322;7.864;2023-03-01T02:02:47;3.37;;;3.07;;
4831;SDS011;2430;51.322;7.864;2023-03-01T02:05:20;3.30;;;2.63;;
4831;SDS011;2430;51.322;7.864;2023-03-01T02:07:48;2.87;;;2.67;;
4831;SDS011;2430;51.322;7.864;2023-03-01T02:10:15;4.37;;;2.60;;
4831;SDS011;2430;51.322;7.864;2023-03-01T02:12:41;3.33;;;2.83;;
4831;SDS011;2430;51.322;7.864;2023-03-01T02:15:08;8.73;;;3.37;;
4831;SDS011;2430;51.322;7.864;2023-03-01T02:17:35;4.10;;;3.50;;
4831;SDS011;2430;51.322;7.864;2023-03-01T02:20:04;6.23;;;4.00;;
4831;SDS011;2430;51.322;7.864;2023-03-01T02:22:35;3.63;;;2.97;;
4831;SDS011;2430;51.322;7.864;2023-03-01T02:25:06;5.80;;;3.50;;
4831;SDS011;2430;51.322;7.864;2023-03-01T02:27:38;4.73;;;3.50;;
4831;SDS011;2430;51.322;7.864;2023-03-01T02:30:08;3.73;;;3.33;;
4831;SDS011;2430;51.322;7.864;2023-03-01T02:32:37;6.33;;;3.00;;
4831;SDS011;2430;51.322;7.864;2023-03-01T02:35:03;2.57;;;2.30;;
4831;SDS011;2430;51.322;7.864;2023-03-01T02:37:31;3.87;;;3.47;;
4831;SDS011;2430;51.322;7.864;2023-03-01T02:39:58;4.47;;;3.07;;
4831;SDS011;2430;51.322;7.864;2023-03-01T02:42:26;4.87;;;2.93;;
4831;SDS011;2430;51.322;7.864;2023-03-01T02:44:53;14.57;;;3.10;;
4831;SDS011;2430;51.322;7.864;2023-03-01T02:47:21;4.77;;;3.10;;
4831;SDS011;2430;51.322;7.864;2023-03-01T02:49:48;3.73;;;2.70;;
4831;SDS011;2430;51.322;7.864;2023-03-01T02:52:21;3.80;;;3.40;;
4831;SDS011;2430;51.322;7.864;2023-03-01T02:54:50;19.17;;;2.50;;
4831;SDS011;2430;51.322;7.864;2023-03-01T02:57:18;3.30;;;2.83;;
4831;SDS011;2430;51.322;7.864;2023-03-01T02:59:47;3.53;;;3.00;;
4831;SDS011;2430;51.322;7.864;2023-03-01T03:02:22;2.83;;;2.53;;
4831;SDS011;2430;51.322;7.864;2023-03-01T03:05:01;3.80;;;2.53;;
4831;SDS011;2430;51.322;7.864;2023-03-01T03:07:28;3.43;;;2.50;;
4831;SDS011;2430;51.322;7.864;2023-03-01T03:09:54;3.33;;;3.03;;
4831;SDS011;2430;51.322;7.864;2023-03-01T03:12:21;3.80;;;3.20;;
4831;SDS011;2430;51.322;7.864;2023-03-01T03:14:47;5.63;;;3.53;;
4831;SDS011;2430;51.322;7.864;2023-03-01T03:17:14;8.03;;;3.30;;
4831;SDS011;2430;51.322;7.864;2023-03-01T03:19:41;5.90;;;3.80;;
4831;SDS011;2430;51.322;7.864;2023-03-01T03:22:10;3.93;;;3.33;;
4831;SDS011;2430;51.322;7.864;2023-03-01T03:24:37;4.57;;;4.07;;
4831;SDS011;2430;51.322;7.864;2023-03-01T03:27:03;5.27;;;3.70;;
4831;SDS011;2430;51.322;7.864;2023-03-01T03:29:30;6.20;;;4.70;;
4831;SDS011;2430;51.322;7.864;2023-03-01T03:31:57;4.17;;;3.50;;
4831;SDS011;2430;51.322;7.864;2023-03-01T03:34:23;9.73;;;3.00;;
4831;SDS011;2430;51.322;7.864;2023-03-01T03:36:53;6.90;;;3.10;;
4831;SDS011;2430;51.322;7.864;2023-03-01T03:39:21;3.20;;;2.90;;
4831;SDS011;2430;51.322;7.864;2023-03-01T03:41:48;5.77;;;4.60;;
4831;SDS011;2430;51.322;7.864;2023-03-01T03:44:14;3.37;;;3.07;;
4831;SDS011;2430;51.322;7.864;2023-03-01T03:46:41;5.10;;;2.93;;
4831;SDS011;2430;51.322;7.864;2023-03-01T03:49:07;12.50;;;3.07;;
4831;SDS011;2430;51.322;7.864;2023-03-01T03:51:33;3.00;;;2.80;;
4831;SDS011;2430;51.322;7.864;2023-03-01T03:54:01;6.77;;;3.17;;
4831;SDS011;2430;51.322;7.864;2023-03-01T03:56:28;5.40;;;3.60;;
4831;SDS011;2430;51.322;7.864;2023-03-01T03:58:55;9.27;;;3.30;;
4831;SDS011;2430;51.322;7.864;2023-03-01T04:01:21;3.63;;;2.87;;
4831;SDS011;2430;51.322;7.864;2023-03-01T04:03:47;4.20;;;3.17;;
4831;SDS011;2430;51.322;7.864;2023-03-01T04:06:19;3.43;;;3.07;;
4831;SDS011;2430;51.322;7.864;2023-03-01T04:08:45;3.70;;;2.50;;
4831;SDS011;2430;51.322;7.864;2023-03-01T04:11:17;5.63;;;4.00;;
4831;SDS011;2430;51.322;7.864;2023-03-01T04:13:53;6.80;;;3.27;;
4831;SDS011;2430;51.322;7.864;2023-03-01T04:16:19;3.77;;;3.10;;
4831;SDS011;2430;51.322;7.864;2023-03-01T04:18:46;3.17;;;2.80;;
4831;SDS011;2430;51.322;7.864;2023-03-01T04:21:13;3.43;;;2.80;;
4831;SDS011;2430;51.322;7.864;2023-03-01T04:23:39;4.80;;;3.67;;
4831;SDS011;2430;51.322;7.864;2023-03-01T04:26:07;5.37;;;3.53;;
4831;SDS011;2430;51.322;7.864;2023-03-01T04:28:35;4.40;;;3.63;;
4831;SDS011;2430;51.322;7.864;2023-03-01T04:31:03;6.70;;;4.77;;
4831;SDS011;2430;51.322;7.864;2023-03-01T04:33:38;5.80;;;3.27;;
4831;SDS011;2430;51.322;7.864;2023-03-01T04:36:05;3.90;;;2.93;;
4831;SDS011;2430;51.322;7.864;2023-03-01T04:38:33;2.77;;;2.57;;
4831;SDS011;2430;51.322;7.864;2023-03-01T04:41:02;5.80;;;3.70;;
4831;SDS011;2430;51.322;7.864;2023-03-01T04:43:28;6.70;;;3.40;;
4831;SDS011;2430;51.322;7.864;2023-03-01T04:45:56;6.80;;;3.07;;
4831;SDS011;2430;51.322;7.864;2023-03-01T04:48:27;4.80;;;3.37;;
4831;SDS011;2430;51.322;7.864;2023-03-01T04:50:54;3.93;;;2.90;;
4831;SDS011;2430;51.322;7.864;2023-03-01T04:53:20;2.83;;;2.63;;
4831;SDS011;2430;51.322;7.864;2023-03-01T04:55:46;5.90;;;4.60;;
4831;SDS011;2430;51.322;7.864;2023-03-01T04:58:13;3.43;;;2.93;;
4831;SDS011;2430;51.322;7.864;2023-03-01T05:00:39;7.33;;;3.43;;
4831;SDS011;2430;51.322;7.864;2023-03-01T05:03:07;4.63;;;3.30;;
4831;SDS011;2430;51.322;7.864;2023-03-01T05:05:34;4.53;;;2.87;;
4831;SDS011;2430;51.322;7.864;2023-03-01T05:08:02;3.33;;;3.03;;
4831;SDS011;2430;51.322;7.864;2023-03-01T05:10:30;5.17;;;3.97;;
4831;SDS011;2430;51.322;7.864;2023-03-01T05:12:57;7.47;;;4.13;;
4831;SDS011;2430;51.322;7.864;2023-03-01T05:15:24;6.43;;;4.17;;
4831;SDS011;2430;51.322;7.864;2023-03-01T05:17:51;3.63;;;3.33;;
4831;SDS011;2430;51.322;7.864;2023-03-01T05:20:20;8.60;;;4.40;;
4831;SDS011;2430;51.322;7.864;2023-03-01T05:22:48;7.77;;;4.50;;
4831;SDS011;2430;51.322;7.864;2023-03-01T05:25:15;9.47;;;5.37;;
4831;SDS011;2430;51.322;7.864;2023-03-01T05:27:42;7.27;;;5.10;;
4831;SDS011;2430;51.322;7.864;2023-03-01T05:30:09;8.73;;;4.93;;
4831;SDS011;2430;51.322;7.864;2023-03-01T05:32:40;5.17;;;3.90;;
4831;SDS011;2430;51.322;7.864;2023-03-01T05:35:08;3.50;;;3.20;;
4831;SDS011;2430;51.322;7.864;2023-03-01T05:37:37;8.00;;;4.43;;
4831;SDS011;2430;51.322;7.864;2023-03-01T05:40:03;5.83;;;3.20;;
4831;SDS011;2430;51.322;7.864;2023-03-01T05:42:31;4.73;;;3.80;;
4831;SDS011;2430;51.322;7.864;2023-03-01T05:44:58;4.67;;;3.63;;
4831;SDS011;2430;51.322;7.864;2023-03-01T05:47:24;6.80;;;3.53;;
4831;SDS011;2430;51.322;7.864;2023-03-01T05:49:50;6.37;;;3.77;;
4831;SDS011;2430;51.322;7.864;2023-03-01T05:52:17;4.37;;;3.90;;
4831;SDS011;2430;51.322;7.864;2023-03-01T05:54:45;6.07;;;3.93;;
4831;SDS011;2430;51.322;7.864;2023-03-01T05:57:11;5.83;;;3.77;;
4831;SDS011;2430;51.322;7.864;2023-03-01T05:59:38;5.50;;;4.10;;
4831;SDS011;2430;51.322;7.864;2023-03-01T06:02:04;4.07;;;3.70;;
4831;SDS011;2430;51.322;7.864;2023-03-01T06:04:30;9.23;;;3.80;;
4831;SDS011;2430;51.322;7.864;2023-03-01T06:06:57;4.83;;;3.80;;
4831;SDS011;2430;51.322;7.864;2023-03-01T06:09:23;5.63;;;4.37;;
4831;SDS011;2430;51.322;7.864;2023-03-01T06:11:52;3.50;;;3.20;;
4831;SDS011;2430;51.322;7.864;2023-03-01T06:14:19;4.40;;;3.07;;
4831;SDS011;2430;51.322;7.864;2023-03-01T06:16:46;13.65;;;4.72;;
4831;SDS011;2430;51.322;7.864;2023-03-01T06:19:12;5.87;;;5.03;;
4831;SDS011;2430;51.322;7.864;2023-03-01T06:21:39;4.37;;;3.93;;
4831;SDS011;2430;51.322;7.864;2023-03-01T06:24:06;5.93;;;4.10;;
4831;SDS011;2430;51.322;7.864;2023-03-01T06:26:33;5.13;;;3.33;;
4831;SDS011;2430;51.322;7.864;2023-03-01T06:29:01;9.53;;;4.50;;
4831;SDS011;2430;51.322;7.864;2023-03-01T06:31:27;4.90;;;4.10;;
4831;SDS011;2430;51.322;7.864;2023-03-01T06:33:54;7.07;;;4.70;;
4831;SDS011;2430;51.322;7.864;2023-03-01T06:36:20;7.23;;;4.47;;
4831;SDS011;2430;51.322;7.864;2023-03-01T06:39:00;5.43;;;4.30;;
4831;SDS011;2430;51.322;7.864;2023-03-01T06:41:26;3.63;;;3.30;;
4831;SDS011;2430;51.322;7.864;2023-03-01T06:43:53;3.43;;;3.13;;
4831;SDS011;2430;51.322;7.864;2023-03-01T06:46:21;5.27;;;3.90;;
4831;SDS011;2430;51.322;7.864;2023-03-01T06:48:47;4.77;;;3.83;;
4831;SDS011;2430;51.322;7.864;2023-03-01T06:51:13;11.73;;;6.03;;
4831;SDS011;2430;51.322;7.864;2023-03-01T06:53:40;5.93;;;4.60;;
4831;SDS011;2430;51.322;7.864;2023-03-01T06:56:07;5.63;;;5.07;;
4831;SDS011;2430;51.322;7.864;2023-03-01T06:58:33;5.33;;;4.30;;
4831;SDS011;2430;51.322;7.864;2023-03-01T07:00:59;3.90;;;3.57;;
4831;SDS011;2430;51.322;7.864;2023-03-01T07:03:27;8.03;;;5.20;;
4831;SDS011;2430;51.322;7.864;2023-03-01T07:05:54;28.70;;;5.37;;
4831;SDS011;2430;51.322;7.864;2023-03-01T07:08:20;5.73;;;4.60;;
4831;SDS011;2430;51.322;7.864;2023-03-01T07:10:47;4.50;;;4.00;;
4831;SDS011;2430;51.322;7.864;2023-03-01T07:13:14;4.20;;;3.20;;
4831;SDS011;2430;51.322;7.864;2023-03-01T07:15:41;8.83;;;5.10;;
4831;SDS011;2430;51.322;7.864;2023-03-01T07:18:07;5.20;;;4.50;;
4831;SDS011;2430;51.322;7.864;2023-03-01T07:20:35;5.37;;;4.83;;
4831;SDS011;2430;51.322;7.864;2023-03-01T07:23:02;7.40;;;4.97;;
4831;SDS011;2430;51.322;7.864;2023-03-01T07:25:29;4.97;;;4.50;;
4831;SDS011;2430;51.322;7.864;2023-03-01T07:27:55;6.53;;;3.70;;
4831;SDS011;2430;51.322;7.864;2023-03-01T07:30:21;8.67;;;4.93;;
4831;SDS011;2430;51.322;7.864;2023-03-01T07:32:50;4.03;;;3.67;;
4831;SDS011;2430;51.322;7.864;2023-03-01T07:35:17;5.93;;;4.13;;
4831;SDS011;2430;51.322;7.864;2023-03-01T07:37:45;4.43;;;4.03;;
4831;SDS011;2430;51.322;7.864;2023-03-01T07:40:12;4.63;;;4.07;;
4831;SDS011;2430;51.322;7.864;2023-03-01T07:42:38;6.83;;;4.40;;
4831;SDS011;2430;51.322;7.864;2023-03-01T07:45:05;4.07;;;3.67;;
4831;SDS011;2430;51.322;7.864;2023-03-01T07:47:32;6.43;;;3.50;;
4831;SDS011;2430;51.322;7.864;2023-03-01T07:49:59;5.33;;;3.73;;
4831;SDS011;2430;51.322;7.864;2023-03-01T07:52:26;7.43;;;4.20;;
4831;SDS011;2430;51.322;7.864;2023-03-01T07:54:54;4.60;;;3.77;;
4831;SDS011;2430;51.322;7.864;2023-03-01T07:57:20;12.50;;;4.50;;
4831;SDS011;2430;51.322;7.864;2023-03-01T07:59:47;8.03;;;4.50;;
4831;SDS011;2430;51.322;7.864;2023-03-01T08:02:13;5.03;;;3.80;;
4831;SDS011;2430;51.322;7.864;2023-03-01T08:04:40;7.67;;;4.10;;
4831;SDS011;2430;51.322;7.864;2023-03-01T08:07:07;6.03;;;3.57;;
4831;SDS011;2430;51.322;7.864;2023-03-01T08:09:34;5.00;;;3.10;;
4831;SDS011;2430;51.322;7.864;2023-03-01T08:12:02;5.30;;;3.87;;
4831;SDS011;2430;51.322;7.864;2023-03-01T08:14:29;5.13;;;3.83;;
4831;SDS011;2430;51.322;7.864;2023-03-01T08:16:56;7.83;;;3.40;;
4831;SDS011;2430;51.322;7.864;2023-03-01T08:19:22;4.63;;;3.20;;
4831;SDS011;2430;51.322;7.864;2023-03-01T08:21:49;4.40;;;3.40;;
4831;SDS011;2430;51.322;7.864;2023-03-01T08:24:15;6.23;;;4.27;;
4831;SDS011;2430;51.322;7.864;2023-03-01T08:26:42;8.60;;;4.30;;
4831;SDS011;2430;51.322;7.864;2023-03-01T08:29:10;8.00;;;3.70;;
4831;SDS011;2430;51.322;7.864;2023-03-01T08:31:37;5.07;;;3.83;;
4831;SDS011;2430;51.322;7.864;2023-03-01T08:34:04;6.10;;;3.50;;
4831;SDS011;2430;51.322;7.864;2023-03-01T08:36:32;5.83;;;5.00;;
4831;SDS011;2430;51.322;7.864;2023-03-01T08:38:59;8.03;;;4.63;;
4831;SDS011;2430;51.322;7.864;2023-03-01T08:41:26;8.33;;;4.37;;
4831;SDS011;2430;51.322;7.864;2023-03-01T08:43:52;5.43;;;3.90;;
4831;SDS011;2430;51.322;7.864;2023-03-01T08:46:25;4.60;;;3.80;;
4831;SDS011;2430;51.322;7.864;2023-03-01T08:48:51;4.37;;;3.97;;
4831;SDS011;2430;51.322;7.864;2023-03-01T08:51:18;6.53;;;3.80;;
4831;SDS011;2430;51.322;7.864;2023-03-01T08:53:45;6.50;;;4.80;;
4831;SDS011;2430;51.322;7.864;2023-03-01T08:56:12;6.17;;;4.33;;
4831;SDS011;2430;51.322;7.864;2023-03-01T08:58:39;6.73;;;4.60;;
4831;SDS011;2430;51.322;7.864;2023-03-01T09:01:09;4.87;;;3.27;;
4831;SDS011;2430;51.322;7.864;2023-03-01T09:03:37;6.23;;;4.57;;
4831;SDS011;2430;51.322;7.864;2023-03-01T09:06:04;5.60;;;3.87;;
4831;SDS011;2430;51.322;7.864;2023-03-01T09:08:31;5.70;;;3.53;;
4831;SDS011;2430;51.322;7.864;2023-03-01T09:11:01;7.20;;;4.20;;
4831;SDS011;2430;51.322;7.864;2023-03-01T09:13:27;32.87;;;4.73;;
4831;SDS011;2430;51.322;7.864;2023-03-01T09:15:56;5.50;;;4.70;;
4831;SDS011;2430;51.322;7.864;2023-03-01T09:18:22;4.43;;;3.40;;
4831;SDS011;2430;51.322;7.864;2023-03-01T09:20:50;6.67;;;4.20;;
4831;SDS011;2430;51.322;7.864;2023-03-01T09:23:16;6.77;;;3.70;;
4831;SDS011;2430;51.322;7.864;2023-03-01T09:25:43;5.70;;;3.70;;
4831;SDS011;2430;51.322;7.864;2023-03-01T09:28:10;5.80;;;3.47;;
4831;SDS011;2430;51.322;7.864;2023-03-01T09:30:36;4.47;;;3.53;;
4831;SDS011;2430;51.322;7.864;2023-03-01T09:33:02;5.33;;;3.73;;
4831;SDS011;2430;51.322;7.864;2023-03-01T09:35:29;5.00;;;3.90;;
4831;SDS011;2430;51.322;7.864;2023-03-01T09:37:57;2.80;;;2.43;;
4831;SDS011;2430;51.322;7.864;2023-03-01T09:40:24;5.33;;;3.60;;
4831;SDS011;2430;51.322;7.864;2023-03-01T09:42:53;4.93;;;2.90;;
4831;SDS011;2430;51.322;7.864;2023-03-01T09:45:24;3.53;;;3.10;;
4831;SDS011;2430;51.322;7.864;2023-03-01T09:47:52;6.30;;;4.20;;
4831;SDS011;2430;51.322;7.864;2023-03-01T09:50:19;5.10;;;3.70;;
4831;SDS011;2430;51.322;7.864;2023-03-01T09:52:46;5.20;;;3.30;;
4831;SDS011;2430;51.322;7.864;2023-03-01T09:55:17;3.23;;;2.83;;
4831;SDS011;2430;51.322;7.864;2023-03-01T09:57:47;4.83;;;3.10;;
4831;SDS011;2430;51.322;7.864;2023-03-01T10:00:20;5.00;;;3.27;;
4831;SDS011;2430;51.322;7.864;2023-03-01T10:02:49;4.17;;;3.17;;
4831;SDS011;2430;51.322;7.864;2023-03-01T10:08:02;6.33;;;3.07;;
4831;SDS011;2430;51.322;7.864;2023-03-01T10:10:33;3.20;;;2.63;;
4831;SDS011;2430;51.322;7.864;2023-03-01T10:13:00;3.20;;;2.70;;
4831;SDS011;2430;51.322;7.864;2023-03-01T10:15:32;6.80;;;3.83;;
4831;SDS011;2430;51.322;7.864;2023-03-01T10:18:01;5.03;;;2.97;;
4831;SDS011;2430;51.322;7.864;2023-03-01T10:20:33;5.57;;;3.10;;
4831;SDS011;2430;51.322;7.864;2023-03-01T10:23:04;4.40;;;3.93;;
4831;SDS011;2430;51.322;7.864;2023-03-01T10:25:40;5.00;;;3.73;;
4831;SDS011;2430;51.322;7.864;2023-03-01T10:28:13;6.00;;;3.03;;
4831;SDS011;2430;51.322;7.864;2023-03-01T10:30:43;6.07;;;3.70;;
4831;SDS011;2430;51.322;7.864;2023-03-01T10:33:16;4.47;;;3.37;;
4831;SDS011;2430;51.322;7.864;2023-03-01T10:35:43;6.50;;;4.03;;
4831;SDS011;2430;51.322;7.864;2023-03-01T10:38:10;7.57;;;3.60;;
4831;SDS011;2430;51.322;7.864;2023-03-01T10:40:49;4.00;;;3.10;;
4831;SDS011;2430;51.322;7.864;2023-03-01T10:43:16;4.00;;;2.63;;
4831;SDS011;2430;51.322;7.864;2023-03-01T10:45:43;9.30;;;2.87;;
4831;SDS011;2430;51.322;7.864;2023-03-01T10:48:13;4.87;;;3.07;;
4831;SDS011;2430;51.322;7.864;2023-03-01T10:50:40;3.57;;;2.97;;
4831;SDS011;2430;51.322;7.864;2023-03-01T10:53:21;3.33;;;2.97;;
4831;SDS011;2430;51.322;7.864;2023-03-01T10:55:57;4.40;;;2.70;;
4831;SDS011;2430;51.322;7.864;2023-03-01T10:58:24;4.63;;;2.47;;
4831;SDS011;2430;51.322;7.864;2023-03-01T11:00:51;4.87;;;2.80;;
4831;SDS011;2430;51.322;7.864;2023-03-01T11:03:19;4.13;;;2.90;;
4831;SDS011;2430;51.322;7.864;2023-03-01T11:05:54;3.37;;;2.50;;
4831;SDS011;2430;51.322;7.864;2023-03-01T11:08:34;5.20;;;3.73;;
4831;SDS011;2430;51.322;7.864;2023-03-01T11:11:06;4.00;;;2.97;;
4831;SDS011;2430;51.322;7.864;2023-03-01T11:13:32;4.50;;;2.90;;
4831;SDS011;2430;51.322;7.864;2023-03-01T11:16:03;2.83;;;2.33;;
4831;SDS011;2430;51.322;7.864;2023-03-01T11:18:31;3.00;;;2.60;;
4831;SDS011;2430;51.322;7.864;2023-03-01T11:20:58;4.20;;;2.67;;
4831;SDS011;2430;51.322;7.864;2023-03-01T11:23:25;5.47;;;3.20;;
4831;SDS011;2430;51.322;7.864;2023-03-01T11:25:54;3.13;;;2.20;;
4831;SDS011;2430;51.322;7.864;2023-03-01T11:28:23;2.90;;;2.20;;
4831;SDS011;2430;51.322;7.864;2023-03-01T11:30:51;16.83;;;3.43;;
4831;SDS011;2430;51.322;7.864;2023-03-01T11:33:20;7.73;;;2.77;;
4831;SDS011;2430;51.322;7.864;2023-03-01T11:35:53;3.90;;;2.90;;
4831;SDS011;2430;51.322;7.864;2023-03-01T11:38:22;2.73;;;2.43;;
4831;SDS011;2430;51.322;7.864;2023-03-01T11:40:50;4.30;;;3.07;;
4831;SDS011;2430;51.322;7.864;2023-03-01T11:43:19;2.70;;;2.17;;
4831;SDS011;2430;51.322;7.864;2023-03-01T11:46:02;5.50;;;3.00;;
4831;SDS011;2430;51.322;7.864;2023-03-01T11:48:41;4.20;;;2.23;;
4831;SDS011;2430;51.322;7.864;2023-03-01T11:51:12;2.50;;;2.30;;
4831;SDS011;2430;51.322;7.864;2023-03-01T11:53:52;2.33;;;2.07;;
4831;SDS011;2430;51.322;7.864;2023-03-01T11:56:25;4.00;;;2.83;;
4831;SDS011;2430;51.322;7.864;2023-03-01T12:01:46;1.83;;;1.67;;
4831;SDS011;2430;51.322;7.864;2023-03-01T12:07:04;10.20;;;2.90;;
4831;SDS011;2430;51.322;7.864;2023-03-01T12:09:49;3.63;;;2.50;;
4831;SDS011;2430;51.322;7.864;2023-03-01T12:12:24;12.33;;;2.43;;
4831;SDS011;2430;51.322;7.864;2023-03-01T12:14:55;6.00;;;3.30;;
4831;SDS011;2430;51.322;7.864;2023-03-01T12:17:35;7.50;;;3.33;;
4831;SDS011;2430;51.322;7.864;2023-03-01T12:22:49;3.20;;;2.57;;
4831;SDS011;2430;51.322;7.864;2023-03-01T12:25:25;6.17;;;3.30;;
4831;SDS011;2430;51.322;7.864;2023-03-01T12:30:55;4.60;;;2.63;;
4831;SDS011;2430;51.322;7.864;2023-03-01T12:33:29;7.57;;;3.83;;
4831;SDS011;2430;51.322;7.864;2023-03-01T12:36:06;5.23;;;3.00;;
4831;SDS011;2430;51.322;7.864;2023-03-01T12:38:37;6.00;;;3.00;;
4831;SDS011;2430;51.322;7.864;2023-03-01T12:41:11;7.53;;;3.40;;
4831;SDS011;2430;51.322;7.864;2023-03-01T12:43:42;4.10;;;2.53;;
4831;SDS011;2430;51.322;7.864;2023-03-01T12:46:20;4.80;;;3.23;;
4831;SDS011;2430;51.322;7.864;2023-03-01T12:48:50;3.50;;;2.97;;
4831;SDS011;2430;51.322;7.864;2023-03-01T12:51:20;3.83;;;2.90;;
4831;SDS011;2430;51.322;7.864;2023-03-01T12:53:49;8.03;;;2.90;;
4831;SDS011;2430;51.322;7.864;2023-03-01T12:56:16;4.40;;;2.80;;
4831;SDS011;2430;51.322;7.864;2023-03-01T12:58:46;8.67;;;3.10;;
4831;SDS011;2430;51.322;7.864;2023-03-01T13:01:16;3.90;;;2.60;;
4831;SDS011;2430;51.322;7.864;2023-03-01T13:06:34;6.87;;;2.77;;
4831;SDS011;2430;51.322;7.864;2023-03-01T13:09:07;23.03;;;2.47;;
4831;SDS011;2430;51.322;7.864;2023-03-01T13:11:35;5.60;;;2.53;;
4831;SDS011;2430;51.322;7.864;2023-03-01T13:16:50;6.50;;;2.80;;
4831;SDS011;2430;51.322;7.864;2023-03-01T13:19:18;11.47;;;2.93;;
4831;SDS011;2430;51.322;7.864;2023-03-01T13:21:47;9.43;;;2.90;;
4831;SDS011;2430;51.322;7.864;2023-03-01T13:24:23;9.97;;;3.50;;
4831;SDS011;2430;51.322;7.864;2023-03-01T13:27:10;3.07;;;2.77;;
4831;SDS011;2430;51.322;7.864;2023-03-01T13:29:43;4.10;;;2.80;;
4831;SDS011;2430;51.322;7.864;2023-03-01T13:32:18;3.73;;;2.73;;
4831;SDS011;2430;51.322;7.864;2023-03-01T13:34:46;4.40;;;2.80;;
4831;SDS011;2430;51.322;7.864;2023-03-01T13:37:21;6.03;;;3.13;;
4831;SDS011;2430;51.322;7.864;2023-03-01T13:39:48;4.83;;;2.97;;
4831;SDS011;2430;51.322;7.864;2023-03-01T13:42:34;4.40;;;3.03;;
4831;SDS011;2430;51.322;7.864;2023-03-01T13:45:02;7.83;;;2.60;;
4831;SDS011;2430;51.322;7.864;2023-03-01T13:47:29;2.77;;;2.50;;
4831;SDS011;2430;51.322;7.864;2023-03-01T13:49:57;6.73;;;3.30;;
4831;SDS011;2430;51.322;7.864;2023-03-01T13:52:32;2.70;;;2.40;;
4831;SDS011;2430;51.322;7.864;2023-03-01T13:55:00;6.20;;;3.20;;
4831;SDS011;2430;51.322;7.864;2023-03-01T13:57:29;6.07;;;3.07;;
4831;SDS011;2430;51.322;7.864;2023-03-01T13:59:56;6.20;;;3.33;;
4831;SDS011;2430;51.322;7.864;2023-03-01T14:02:25;5.03;;;3.27;;
4831;SDS011;2430;51.322;7.864;2023-03-01T14:04:58;4.40;;;3.03;;
4831;SDS011;2430;51.322;7.864;2023-03-01T14:07:25;5.07;;;2.43;;
4831;SDS011;2430;51.322;7.864;2023-03-01T14:09:56;3.60;;;2.80;;
4831;SDS011;2430;51.322;7.864;2023-03-01T14:12:30;8.53;;;3.57;;
4831;SDS011;2430;51.322;7.864;2023-03-01T14:15:01;2.70;;;2.43;;
4831;SDS011;2430;51.322;7.864;2023-03-01T14:17:40;3.23;;;2.23;;
4831;SDS011;2430;51.322;7.864;2023-03-01T14:20:09;4.23;;;2.67;;
4831;SDS011;2430;51.322;7.864;2023-03-01T14:22:38;3.93;;;2.60;;
4831;SDS011;2430;51.322;7.864;2023-03-01T14:25:19;6.30;;;2.70;;
4831;SDS011;2430;51.322;7.864;2023-03-01T14:27:50;8.30;;;2.73;;
4831;SDS011;2430;51.322;7.864;2023-03-01T14:30:18;3.77;;;2.70;;
4831;SDS011;2430;51.322;7.864;2023-03-01T14:32:51;4.17;;;2.73;;
4831;SDS011;2430;51.322;7.864;2023-03-01T14:35:19;3.97;;;2.67;;
4831;SDS011;2430;51.322;7.864;2023-03-01T14:37:46;3.23;;;2.93;;
4831;SDS011;2430;51.322;7.864;2023-03-01T14:40:21;5.03;;;2.47;;
4831;SDS011;2430;51.322;7.864;2023-03-01T14:42:49;3.77;;;2.53;;
4831;SDS011;2430;51.322;7.864;2023-03-01T14:45:16;3.97;;;2.50;;
4831;SDS011;2430;51.322;7.864;2023-03-01T14:47:43;2.93;;;2.37;;
4831;SDS011;2430;51.322;7.864;2023-03-01T14:50:15;2.60;;;2.40;;
4831;SDS011;2430;51.322;7.864;2023-03-01T14:52:44;3.03;;;2.30;;
4831;SDS011;2430;51.322;7.864;2023-03-01T14:55:13;3.20;;;2.37;;
4831;SDS011;2430;51.322;7.864;2023-03-01T14:57:44;3.40;;;2.30;;
4831;SDS011;2430;51.322;7.864;2023-03-01T15:00:12;3.43;;;2.37;;
4831;SDS011;2430;51.322;7.864;2023-03-01T15:02:42;2.63;;;2.23;;
4831;SDS011;2430;51.322;7.864;2023-03-01T15:05:09;8.27;;;2.80;;
4831;SDS011;2430;51.322;7.864;2023-03-01T15:07:36;4.47;;;2.53;;
4831;SDS011;2430;51.322;7.864;2023-03-01T15:10:03;5.10;;;2.80;;
4831;SDS011;2430;51.322;7.864;2023-03-01T15:12:34;3.77;;;2.50;;
4831;SDS011;2430;51.322;7.864;2023-03-01T15:15:18;3.17;;;2.50;;
4831;SDS011;2430;51.322;7.864;2023-03-01T15:17:49;5.30;;;3.13;;
4831;SDS011;2430;51.322;7.864;2023-03-01T15:20:18;3.07;;;2.77;;
4831;SDS011;2430;51.322;7.864;2023-03-01T15:22:46;4.40;;;2.90;;
4831;SDS011;2430;51.322;7.864;2023-03-01T15:25:14;2.87;;;2.23;;
4831;SDS011;2430;51.322;7.864;2023-03-01T15:27:44;2.97;;;2.53;;
4831;SDS011;2430;51.322;7.864;2023-03-01T15:30:16;2.80;;;2.40;;
4831;SDS011;2430;51.322;7.864;2023-03-01T15:32:43;3.80;;;2.73;;
4831;SDS011;2430;51.322;7.864;2023-03-01T15:37:55;3.27;;;2.83;;
4831;SDS011;2430;51.322;7.864;2023-03-01T15:40:26;7.67;;;2.67;;
4831;SDS011;2430;51.322;7.864;2023-03-01T15:42:56;5.37;;;2.80;;
4831;SDS011;2430;51.322;7.864;2023-03-01T15:45:25;2.57;;;2.37;;
4831;SDS011;2430;51.322;7.864;2023-03-01T15:47:53;3.27;;;2.23;;